createdAt,value
2023-08-12T00:02:21.302Z,20.12
2023-08-12T00:04:51.487Z,20.13
2023-08-12T00:07:20.739Z,20.02
2023-08-12T00:09:54.028Z,19.93
2023-08-12T00:12:25.341Z,19.97
2023-08-12T00:14:53.159Z,19.97
2023-08-12T00:17:23.478Z,19.90
2023-08-12T00:19:54.941Z,19.89
2023-08-12T00:22:26.128Z,19.84
2023-08-12T00:24:57.987Z,19.82
2023-08-12T00:27:28.933Z,19.82
2023-08-12T00:29:59.886Z,19.79
2023-08-12T00:32:31.981Z,19.73
2023-08-12T00:35:01.201Z,19.73
2023-08-12T00:37:33.337Z,19.67
2023-08-12T00:40:03.603Z,19.64
2023-08-12T00:42:35.841Z,19.62
2023-08-12T00:45:06.456Z,19.62
2023-08-12T00:47:36.660Z,19.59
2023-08-12T00:50:11.511Z,19.59
2023-08-12T00:52:43.135Z,19.53
2023-08-12T00:55:14.622Z,19.50
2023-08-12T00:57:42.724Z,19.47
2023-08-12T01:00:17.393Z,19.47
2023-08-12T01:02:50.222Z,19.46
2023-08-12T01:05:19.011Z,19.45
2023-08-12T01:07:49.709Z,19.39
2023-08-12T01:10:29.121Z,19.38
2023-08-12T01:13:34.958Z,19.35
2023-08-12T01:16:07.325Z,19.33
2023-08-12T01:19:48.039Z,19.32
2023-08-12T01:22:19.618Z,19.26
2023-08-12T01:24:50.116Z,19.25
2023-08-12T01:27:21.615Z,19.18
2023-08-12T01:29:52.979Z,19.17
2023-08-12T01:32:34.059Z,19.14
2023-08-12T01:35:40.889Z,19.12
2023-08-12T01:38:15.966Z,19.12
2023-08-12T01:40:46.803Z,19.06
2023-08-12T01:43:16.538Z,19.02
2023-08-12T01:45:45.557Z,19.01
2023-08-12T01:48:14.819Z,18.99
2023-08-12T01:50:49.925Z,18.96
2023-08-12T01:53:26.623Z,19.00
2023-08-12T01:55:55.929Z,18.97
2023-08-12T01:58:23.696Z,18.99
2023-08-12T02:00:54.617Z,18.94
2023-08-12T02:03:34.716Z,18.92
2023-08-12T02:06:14.210Z,18.92
2023-08-12T02:08:43.134Z,18.95
2023-08-12T02:11:12.659Z,18.97
2023-08-12T02:13:40.419Z,18.98
2023-08-12T02:16:08.064Z,18.91
2023-08-12T02:18:37.193Z,18.90
2023-08-12T02:21:07.634Z,18.86
2023-08-12T02:23:36.922Z,18.86
2023-08-12T02:26:10.801Z,18.86
2023-08-12T02:28:39.542Z,18.84
2023-08-12T02:31:10.997Z,18.84
2023-08-12T02:33:47.966Z,18.80
2023-08-12T02:36:16.537Z,18.81
2023-08-12T02:38:45.934Z,18.77
2023-08-12T02:41:16.488Z,18.75
2023-08-12T02:43:45.869Z,18.76
2023-08-12T02:46:18.252Z,18.71
2023-08-12T02:48:48.868Z,18.69
2023-08-12T02:51:20.707Z,18.66
2023-08-12T02:53:55.463Z,18.62
2023-08-12T14:24:38.676Z,22.93
2023-08-12T14:27:08.223Z,22.39
2023-08-12T14:29:38.775Z,22.19
2023-08-12T14:32:09.575Z,22.04
2023-08-12T14:34:41.275Z,21.92
2023-08-12T14:37:12.835Z,21.81
2023-08-12T14:39:42.618Z,21.66
2023-08-12T14:42:14.001Z,21.68
2023-08-12T14:44:48.300Z,21.80
2023-08-12T14:47:17.518Z,21.93
2023-08-12T14:49:50.923Z,22.11
2023-08-12T14:52:21.814Z,22.16
2023-08-12T14:54:51.092Z,22.11
2023-08-12T14:57:23.200Z,22.05
2023-08-12T14:59:52.304Z,21.89
2023-08-12T15:02:27.126Z,21.76
2023-08-12T15:04:55.469Z,21.56
2023-08-12T15:07:23.508Z,21.50
2023-08-12T15:09:56.227Z,21.41
2023-08-12T15:12:27.937Z,21.30
2023-08-12T15:14:56.811Z,21.34
2023-08-12T15:17:24.783Z,21.25
2023-08-12T15:19:53.520Z,21.11
2023-08-12T15:22:25.973Z,21.01
2023-08-12T15:24:54.197Z,20.95
2023-08-12T15:27:29.876Z,20.94
2023-08-12T15:30:06.187Z,20.98
2023-08-12T15:32:34.617Z,20.98
2023-08-12T15:35:09.292Z,21.04
2023-08-12T15:37:44.301Z,21.11
2023-08-12T15:40:14.431Z,21.03
2023-08-12T15:42:46.177Z,20.90
2023-08-12T15:45:20.869Z,20.94
2023-08-12T15:47:48.434Z,20.99
2023-08-12T15:50:16.607Z,20.93
2023-08-12T15:52:46.395Z,20.99
2023-08-12T15:55:18.376Z,21.09
2023-08-12T15:57:48.571Z,21.18
2023-08-12T16:00:19.300Z,21.19
2023-08-12T16:02:49.890Z,21.14
2023-08-12T16:05:18.913Z,21.32
2023-08-12T16:07:54.999Z,21.34
2023-08-12T16:10:24.449Z,21.55
2023-08-12T16:12:52.020Z,21.81
2023-08-12T16:15:22.560Z,22.32
2023-08-12T16:17:52.834Z,23.04
2023-08-12T16:20:23.732Z,23.64
2023-08-12T16:22:55.380Z,24.25
2023-08-12T16:25:26.031Z,24.94
2023-08-12T16:27:57.309Z,25.40
2023-08-12T16:30:26.425Z,25.39
2023-08-12T16:32:57.278Z,25.73
2023-08-12T16:35:27.030Z,25.37
2023-08-12T16:37:58.326Z,25.27
2023-08-12T16:40:30.449Z,25.48
2023-08-12T16:43:05.141Z,25.40
2023-08-12T16:45:35.555Z,25.08
2023-08-12T16:48:03.471Z,24.75
2023-08-12T16:50:33.972Z,24.37
2023-08-12T16:53:05.739Z,24.10
2023-08-12T16:55:37.209Z,23.94
2023-08-12T16:58:06.358Z,23.61
2023-08-12T17:00:34.599Z,23.53
2023-08-12T17:03:02.243Z,23.24
2023-08-12T17:05:30.071Z,23.12
2023-08-12T17:07:57.596Z,22.99
2023-08-12T17:10:32.680Z,22.87
2023-08-12T17:13:09.237Z,22.82
2023-08-12T17:15:40.535Z,22.60
2023-08-12T17:18:09.458Z,22.54
2023-08-12T17:20:39.768Z,22.55
2023-08-12T17:23:12.773Z,22.56
2023-08-12T17:25:41.285Z,22.48
2023-08-12T17:28:10.090Z,22.48
2023-08-12T17:30:37.908Z,22.41
2023-08-12T17:33:08.148Z,22.48
2023-08-12T17:35:42.089Z,22.48
2023-08-12T17:38:10.779Z,22.41
2023-08-12T17:40:38.352Z,22.38
2023-08-12T17:43:08.326Z,22.40
2023-08-12T17:45:41.099Z,22.32
2023-08-12T17:48:10.972Z,22.32
2023-08-12T17:50:39.832Z,22.20
2023-08-12T17:53:10.164Z,22.04
2023-08-12T17:55:40.377Z,21.94
2023-08-12T17:58:11.774Z,21.85
2023-08-12T18:00:43.753Z,21.79
2023-08-12T18:03:18.893Z,21.63
2023-08-12T18:05:48.558Z,21.52
2023-08-12T18:08:18.818Z,21.40
2023-08-12T18:10:49.995Z,21.27
2023-08-12T18:13:20.784Z,21.27
2023-08-12T18:15:49.468Z,21.32
2023-08-12T18:18:17.444Z,21.29
2023-08-12T18:20:47.786Z,21.30
2023-08-12T18:23:20.120Z,21.31
2023-08-12T18:25:49.788Z,21.24
2023-08-12T18:28:17.618Z,21.26
2023-08-12T18:30:46.604Z,21.27
2023-08-12T18:33:18.259Z,21.33
2023-08-12T18:35:48.082Z,21.36
2023-08-12T18:38:19.189Z,21.41
2023-08-12T18:40:49.473Z,21.45
2023-08-12T18:43:20.246Z,21.41
2023-08-12T18:45:47.837Z,21.42
2023-08-12T18:48:16.355Z,21.39
2023-08-12T18:50:48.007Z,21.31
2023-08-12T18:53:16.581Z,21.29
2023-08-12T18:55:47.061Z,21.22
2023-08-12T18:58:14.595Z,21.22
2023-08-12T19:00:43.534Z,21.20
2023-08-12T19:03:11.868Z,21.15
2023-08-12T19:05:48.786Z,21.18
2023-08-12T19:08:17.493Z,21.11
2023-08-12T19:10:46.248Z,21.10
2023-08-12T19:13:15.939Z,21.07
2023-08-12T19:15:46.248Z,21.09
2023-08-12T19:18:14.118Z,21.05
2023-08-12T19:20:43.175Z,21.03
2023-08-12T19:23:10.926Z,21.01
2023-08-12T19:25:39.559Z,21.04
2023-08-12T19:28:08.051Z,21.04
2023-08-12T19:30:38.632Z,21.04
2023-08-12T19:33:07.113Z,21.00
2023-08-12T19:35:38.070Z,20.93
2023-08-12T19:38:13.147Z,20.92
2023-08-12T19:40:43.175Z,21.03
2023-08-12T19:43:17.978Z,21.07
2023-08-12T19:45:46.966Z,21.22
2023-08-12T19:48:16.053Z,21.31
2023-08-12T19:50:46.598Z,21.29
2023-08-12T19:53:19.988Z,21.23
2023-08-12T19:55:51.342Z,21.22
2023-08-12T19:58:19.299Z,21.25
2023-08-12T20:00:49.982Z,21.31
2023-08-12T20:03:19.041Z,21.34
2023-08-12T20:05:48.248Z,21.29
2023-08-12T20:08:16.271Z,21.29
2023-08-12T20:10:46.821Z,21.14
2023-08-12T20:13:16.837Z,21.09
2023-08-12T20:15:44.362Z,21.06
2023-08-12T20:18:12.954Z,21.02
2023-08-12T20:20:41.839Z,21.07
2023-08-12T20:23:10.119Z,21.06
2023-08-12T20:25:39.569Z,20.93
2023-08-12T20:28:10.191Z,20.90
2023-08-12T20:30:43.484Z,20.94
2023-08-12T20:33:12.574Z,20.80
2023-08-12T20:35:42.644Z,20.70
2023-08-12T20:38:10.634Z,20.62
2023-08-12T20:40:38.191Z,20.61
2023-08-12T20:43:05.739Z,20.63
2023-08-12T20:45:37.696Z,20.55
2023-08-12T20:48:06.334Z,20.57
2023-08-12T20:50:34.066Z,20.48
2023-08-12T20:53:01.584Z,20.43
2023-08-12T20:55:30.557Z,20.40
2023-08-12T20:57:58.548Z,20.36
2023-08-12T21:00:27.546Z,20.31
2023-08-12T21:02:56.789Z,20.34
2023-08-12T21:05:24.394Z,20.30
2023-08-12T21:07:53.957Z,20.26
2023-08-12T21:10:22.813Z,20.29
2023-08-12T21:12:50.705Z,20.26
2023-08-12T21:15:18.746Z,20.23
2023-08-12T21:17:47.115Z,20.19
2023-08-12T21:20:15.333Z,20.14
2023-08-12T21:22:44.821Z,20.09
2023-08-12T21:25:12.924Z,20.11
2023-08-12T21:27:40.522Z,20.17
2023-08-12T21:30:09.783Z,20.12
2023-08-12T21:32:37.979Z,20.09
2023-08-12T21:35:07.875Z,20.08
2023-08-12T21:37:37.317Z,20.08
2023-08-12T21:40:06.838Z,20.08
2023-08-12T21:42:37.201Z,20.01
2023-08-12T21:45:05.180Z,20.00
2023-08-12T21:47:33.248Z,20.02
2023-08-12T21:50:01.096Z,19.98
2023-08-12T21:52:32.099Z,19.86
2023-08-12T21:54:59.879Z,19.83
2023-08-12T21:57:28.566Z,19.79
2023-08-12T21:59:56.449Z,19.77
2023-08-12T22:02:29.265Z,19.76
2023-08-12T22:04:57.180Z,19.80
2023-08-12T22:07:26.540Z,19.76
2023-08-12T22:09:54.326Z,19.72
2023-08-12T22:12:21.943Z,19.68
2023-08-12T22:14:50.886Z,19.65
2023-08-12T22:17:18.874Z,19.73
2023-08-12T22:19:51.085Z,19.73
2023-08-12T22:22:20.580Z,19.78
2023-08-12T22:24:51.439Z,19.80
2023-08-12T22:27:20.086Z,19.85
2023-08-12T22:29:49.110Z,19.90
2023-08-12T22:32:17.940Z,19.90
2023-08-12T22:34:47.312Z,19.83
2023-08-12T22:37:18.216Z,19.80
2023-08-12T22:39:46.010Z,19.80
2023-08-12T22:42:14.501Z,19.79
2023-08-12T22:44:42.523Z,19.81
2023-08-12T22:47:10.351Z,19.79
2023-08-12T22:49:38.655Z,19.73
2023-08-12T22:52:06.256Z,19.64
2023-08-12T22:54:35.518Z,19.54
2023-08-12T22:57:05.820Z,19.52
2023-08-12T22:59:37.734Z,19.47
2023-08-12T23:02:05.698Z,19.40
2023-08-12T23:04:34.500Z,19.38
2023-08-12T23:07:06.167Z,19.34
2023-08-12T23:09:34.234Z,19.36
2023-08-12T23:12:03.349Z,19.37
2023-08-12T23:14:32.807Z,19.38
2023-08-12T23:17:01.865Z,19.38
2023-08-12T23:19:37.241Z,19.39
2023-08-12T23:22:06.077Z,19.39
2023-08-12T23:24:33.686Z,19.35
2023-08-12T23:27:01.299Z,19.33
2023-08-12T23:29:31.831Z,19.28
2023-08-12T23:32:01.593Z,19.34
2023-08-12T23:34:29.120Z,19.33
2023-08-12T23:36:58.838Z,19.35
2023-08-12T23:39:28.032Z,19.35
2023-08-12T23:42:01.419Z,19.31
2023-08-12T23:44:29.858Z,19.25
2023-08-12T23:46:57.522Z,19.22
2023-08-12T23:49:25.326Z,19.17
2023-08-12T23:51:52.961Z,19.13
2023-08-12T23:54:20.713Z,19.13
2023-08-12T23:56:49.249Z,19.10
2023-08-12T23:59:19.010Z,19.17
